Time;durP1;ratioP1;P1;durP2;ratioP2;P2;SDS_P1;SDS_P2;PMS_P1;PMS_P2;Temp;Humidity;BMP_temperature;BMP_pressure;BME280_temperature;BME280_humidity;BME280_pressure;Samples;Min_cycle;Max_cycle;Signal;HPM_P1;HPM_P2
2022/10/22 00:00:53;;;;;;;;;4.33;3.00;;;;;15.44;100.00;100537.81;4943722;28;46027;-71
2022/10/22 00:03:18;;;;;;;;;2.00;2.00;;;;;15.43;100.00;100543.38;4940785;28;45228;-71
2022/10/22 00:05:44;;;;;;;;;4.00;3.00;;;;;15.39;100.00;100546.50;4968973;28;46793;-71
2022/10/22 00:08:09;;;;;;;;;3.00;3.00;;;;;15.40;100.00;100547.31;4940613;28;46190;-72
2022/10/22 00:10:37;;;;;;;;;5.67;3.33;;;;;15.40;100.00;100550.00;4940774;28;45212;-71
2022/10/22 00:13:02;;;;;;;;;4.00;4.00;;;;;15.39;100.00;100553.72;4941008;28;45262;-72
2022/10/22 00:15:28;;;;;;;;;3.00;3.00;;;;;15.31;100.00;100540.56;4940670;28;45322;-71
2022/10/22 00:17:53;;;;;;;;;1.00;1.00;;;;;15.38;100.00;100563.59;4956995;28;50984;-71
2022/10/22 00:20:18;;;;;;;;;4.00;3.00;;;;;15.35;100.00;100555.16;4949885;28;45270;-71
2022/10/22 00:22:44;;;;;;;;;3.00;3.00;;;;;15.36;100.00;100562.19;4940606;28;45551;-71
2022/10/22 00:25:09;;;;;;;;;4.00;4.00;;;;;15.35;100.00;100568.53;4940760;28;45322;-71
2022/10/22 00:27:34;;;;;;;;;3.00;3.00;;;;;15.34;100.00;100564.22;4940379;28;45388;-71
2022/10/22 00:29:59;;;;;;;;;3.67;3.67;;;;;15.31;100.00;100572.69;4940676;28;45331;-71
2022/10/22 00:32:25;;;;;;;;;2.67;2.67;;;;;15.30;100.00;100576.41;4940333;28;45475;-72
2022/10/22 00:34:50;;;;;;;;;2.67;2.67;;;;;15.24;100.00;100570.84;4940300;28;45809;-71
2022/10/22 00:37:15;;;;;;;;;2.00;2.00;;;;;15.27;100.00;100578.44;4948748;28;47482;-72
2022/10/22 00:39:41;;;;;;;;;3.67;2.67;;;;;15.31;100.00;100586.91;4942911;28;45595;-71
2022/10/22 00:42:06;;;;;;;;;4.00;4.00;;;;;15.27;100.00;100588.34;4939301;28;45265;-71
2022/10/22 00:45:17;;;;;;;;;3.00;3.00;;;;;15.31;100.00;100588.75;4950109;28;45436;-72
2022/10/22 00:47:49;;;;;;;;;5.67;4.67;;;;;15.29;100.00;100590.81;4943792;28;47423;-71
2022/10/22 00:50:20;;;;;;;;;3.00;3.00;;;;;15.31;100.00;100596.78;4944902;28;45239;-71
2022/10/22 00:52:46;;;;;;;;;3.00;3.00;;;;;15.22;100.00;100591.66;4946530;28;45460;-72
2022/10/22 00:55:13;;;;;;;;;4.33;4.33;;;;;15.23;100.00;100595.13;4946152;28;45370;-71
2022/10/22 00:57:39;;;;;;;;;3.33;3.33;;;;;15.25;100.00;100603.78;4940078;28;45639;-71
2022/10/22 01:00:05;;;;;;;;;3.00;2.00;;;;;15.25;100.00;100604.63;4940254;28;45274;-72
2022/10/22 01:02:31;;;;;;;;;3.00;2.00;;;;;15.26;100.00;100616.97;4941822;28;45279;-71
2022/10/22 01:04:56;;;;;;;;;2.00;2.00;;;;;15.27;100.00;100615.13;4940077;28;45258;-72
2022/10/22 01:07:24;;;;;;;;;3.00;2.00;;;;;15.26;100.00;100613.47;4939525;28;47410;-71
2022/10/22 01:09:58;;;;;;;;;6.00;4.00;;;;;15.31;100.00;100634.25;4940306;28;45409;-71
2022/10/22 01:12:32;;;;;;;;;2.00;2.00;;;;;15.24;100.00;100629.72;4953226;28;45295;-71
2022/10/22 01:15:06;;;;;;;;;2.00;2.00;;;;;15.31;100.00;100639.63;4943217;28;45583;-71
2022/10/22 01:17:40;;;;;;;;;3.00;2.67;;;;;15.32;100.00;100639.41;4942512;28;45406;-72
2022/10/22 01:20:34;;;;;;;;;3.33;2.33;;;;;15.32;100.00;100646.63;4943053;28;45351;-71
2022/10/22 01:23:09;;;;;;;;;2.00;2.00;;;;;15.27;100.00;100648.06;4943011;28;45432;-71
2022/10/22 01:25:39;;;;;;;;;2.33;2.33;;;;;15.30;100.00;100648.69;4943223;28;45301;-71
2022/10/22 01:28:23;;;;;;;;;2.00;2.00;;;;;15.28;100.00;100654.25;4975253;28;47598;-71
2022/10/22 01:30:53;;;;;;;;;3.00;3.00;;;;;15.26;100.00;100654.44;4948596;28;45284;-72
2022/10/22 01:33:21;;;;;;;;;2.00;2.00;;;;;15.23;100.00;100649.50;4943022;28;45458;-71
2022/10/22 01:35:47;;;;;;;;;2.00;2.00;;;;;15.21;100.00;100651.59;4942605;28;45479;-71
2022/10/22 01:38:18;;;;;;;;;2.67;2.67;;;;;15.12;100.00;100650.16;4942732;28;46225;-72
2022/10/22 01:40:45;;;;;;;;;3.00;2.67;;;;;15.17;100.00;100654.88;4953280;28;45325;-71
2022/10/22 01:43:10;;;;;;;;;1.67;1.67;;;;;15.17;100.00;100663.72;4946007;28;45222;-71
2022/10/22 01:45:47;;;;;;;;;2.67;2.00;;;;;15.12;100.00;100663.53;4959366;28;45584;-71
2022/10/22 01:48:34;;;;;;;;;2.67;2.67;;;;;15.12;100.00;100671.56;4950106;28;46068;-72
2022/10/22 01:51:18;;;;;;;;;2.67;2.00;;;;;15.15;100.00;100668.47;4942793;28;45448;-72
2022/10/22 01:54:06;;;;;;;;;3.33;3.00;;;;;15.15;100.00;100663.13;4942661;28;45330;-71
2022/10/22 01:56:56;;;;;;;;;3.00;3.00;;;;;15.11;100.00;100665.38;4942640;28;45352;-71
2022/10/22 01:59:32;;;;;;;;;3.00;3.00;;;;;15.10;100.00;100666.41;4942585;28;45304;-71
2022/10/22 02:02:09;;;;;;;;;3.67;2.00;;;;;14.99;100.00;100654.47;4972390;28;45338;-71
2022/10/22 02:04:42;;;;;;;;;5.33;4.00;;;;;15.10;100.00;100678.97;4955554;28;45296;-71
2022/10/22 02:07:12;;;;;;;;;3.00;3.00;;;;;15.12;100.00;100679.59;4954306;28;47299;-71
2022/10/22 02:09:39;;;;;;;;;5.00;2.00;;;;;15.13;100.00;100675.88;4955485;28;45393;-71
2022/10/22 02:12:08;;;;;;;;;1.00;1.00;;;;;15.10;100.00;100669.09;4950364;28;45374;-71
2022/10/22 02:14:37;;;;;;;;;3.33;2.00;;;;;15.19;100.00;100675.06;4942524;28;45348;-71
2022/10/22 02:17:05;;;;;;;;;1.33;1.00;;;;;15.23;100.00;100670.94;4942157;28;45508;-71
2022/10/22 02:19:43;;;;;;;;;1.00;1.00;;;;;15.30;100.00;100670.09;4942193;28;45352;-72
2022/10/22 02:22:09;;;;;;;;;2.00;2.00;;;;;15.34;100.00;100664.13;4952115;28;45268;-71
2022/10/22 02:24:34;;;;;;;;;4.00;3.00;;;;;15.29;100.00;100652.41;4944316;28;45416;-71
2022/10/22 02:27:05;;;;;;;;;2.00;2.00;;;;;15.40;100.00;100670.50;4942220;28;45266;-71
2022/10/22 02:29:57;;;;;;;;;3.00;2.00;;;;;15.45;100.00;100677.91;4942026;28;45342;-71
2022/10/22 02:32:27;;;;;;;;;4.67;3.33;;;;;15.52;100.00;100684.06;4942004;28;45341;-72
2022/10/22 02:34:54;;;;;;;;;2.67;1.00;;;;;15.57;100.00;100696.84;4942248;28;45298;-71
2022/10/22 02:37:22;;;;;;;;;3.00;2.00;;;;;15.59;100.00;100700.16;4941804;28;45390;-71
2022/10/22 02:39:48;;;;;;;;;1.00;1.00;;;;;15.64;100.00;100703.00;4941928;28;45365;-71
2022/10/22 02:42:13;;;;;;;;;2.00;1.33;;;;;15.67;100.00;100699.09;4949015;28;46063;-71
2022/10/22 02:44:39;;;;;;;;;2.00;2.00;;;;;15.64;100.00;100693.13;4957519;28;45414;-71
2022/10/22 02:47:04;;;;;;;;;2.00;2.00;;;;;15.74;100.00;100705.25;4944664;28;45436;-71
2022/10/22 02:49:30;;;;;;;;;2.67;2.67;;;;;15.70;100.00;100704.88;4942057;28;46660;-71
2022/10/22 02:51:55;;;;;;;;;2.00;0.33;;;;;15.73;100.00;100711.66;4941756;28;45219;-71
2022/10/22 02:54:21;;;;;;;;;3.00;2.00;;;;;15.76;100.00;100712.06;4942184;28;45270;-71
2022/10/22 02:56:46;;;;;;;;;2.33;2.00;;;;;15.78;100.00;100701.94;4952685;28;47780;-72
2022/10/22 02:59:11;;;;;;;;;2.00;2.00;;;;;15.75;100.00;100691.66;4955127;28;45876;-71
2022/10/22 03:01:37;;;;;;;;;2.00;2.00;;;;;15.80;100.00;100698.25;4943575;28;45183;-70
2022/10/22 03:04:02;;;;;;;;;4.67;3.33;;;;;15.73;100.00;100692.88;4954346;28;45395;-71
2022/10/22 03:06:28;;;;;;;;;4.33;4.00;;;;;15.64;100.00;100685.09;4949635;28;45576;-71
2022/10/22 03:08:53;;;;;;;;;7.67;5.00;;;;;15.66;100.00;100700.97;4946392;28;45639;-72
2022/10/22 03:11:18;;;;;;;;;7.33;6.67;;;;;15.53;100.00;100681.19;4946488;28;45252;-72
2022/10/22 03:13:43;;;;;;;;;7.33;7.00;;;;;15.60;100.00;100709.81;4947952;28;45293;-72
2022/10/22 03:16:09;;;;;;;;;8.00;8.00;;;;;15.56;100.00;100716.63;4941438;28;45508;-72
2022/10/22 03:18:34;;;;;;;;;9.33;9.00;;;;;15.49;100.00;100713.94;4951080;28;46022;-71
2022/10/22 03:21:20;;;;;;;;;7.67;7.67;;;;;15.56;100.00;100728.16;4945006;28;45397;-71
2022/10/22 03:23:46;;;;;;;;;7.67;6.33;;;;;15.53;100.00;100724.03;4950810;28;45525;-72
2022/10/22 03:26:13;;;;;;;;;10.00;8.33;;;;;15.52;100.00;100717.06;4944037;28;45547;-72
2022/10/22 03:28:40;;;;;;;;;7.33;7.33;;;;;15.58;100.00;100736.81;4964948;28;48491;-71
2022/10/22 03:31:05;;;;;;;;;8.67;8.00;;;;;15.64;100.00;100737.84;4973427;28;45373;-71
2022/10/22 03:33:30;;;;;;;;;7.67;7.67;;;;;15.67;100.00;100741.94;4953867;28;45315;-71
2022/10/22 03:35:56;;;;;;;;;7.00;5.33;;;;;15.64;100.00;100738.69;4940687;28;45314;-71
2022/10/22 03:38:21;;;;;;;;;7.67;6.00;;;;;15.61;100.00;100730.22;4945713;28;46190;-72
2022/10/22 03:40:47;;;;;;;;;9.00;6.67;;;;;15.68;100.00;100741.75;4949936;28;45290;-71
2022/10/22 03:43:13;;;;;;;;;5.00;5.00;;;;;15.75;100.00;100747.09;4941208;28;45217;-71
2022/10/22 03:45:38;;;;;;;;;4.00;4.00;;;;;15.72;100.00;100750.19;4974436;28;45393;-72
2022/10/22 03:48:04;;;;;;;;;2.33;2.33;;;;;15.76;100.00;100759.47;4960033;28;57295;-72
2022/10/22 03:50:29;;;;;;;;;2.00;2.00;;;;;15.74;100.00;100754.31;4943667;28;45305;-72
2022/10/22 03:52:58;;;;;;;;;4.67;3.67;;;;;15.76;100.00;100765.66;4948396;28;45325;-71
2022/10/22 03:55:24;;;;;;;;;3.67;2.67;;;;;15.74;100.00;100761.50;4945075;28;45374;-71
2022/10/22 03:57:49;;;;;;;;;3.00;3.00;;;;;15.75;100.00;100766.66;4946803;28;47220;-71
2022/10/22 04:00:15;;;;;;;;;3.67;3.67;;;;;15.79;100.00;100775.13;4975037;28;45387;-72
2022/10/22 04:02:40;;;;;;;;;3.00;3.00;;;;;15.84;100.00;100780.69;4956346;28;45356;-71
2022/10/22 04:05:06;;;;;;;;;2.00;2.00;;;;;15.87;100.00;100780.25;4940814;28;45375;-71
2022/10/22 04:07:31;;;;;;;;;4.00;3.00;;;;;15.88;100.00;100781.91;4940383;28;47875;-71
2022/10/22 04:09:57;;;;;;;;;3.33;2.00;;;;;15.87;100.00;100771.41;4940976;28;45281;-71
2022/10/22 04:12:22;;;;;;;;;2.00;2.00;;;;;15.90;100.00;100779.03;4939550;28;45353;-71
2022/10/22 04:14:47;;;;;;;;;1.67;1.67;;;;;15.93;100.00;100780.47;4940898;28;45527;-71
2022/10/22 04:17:14;;;;;;;;;4.00;1.00;;;;;15.92;100.00;100766.22;4939111;28;47168;-71
2022/10/22 04:19:39;;;;;;;;;3.33;2.00;;;;;16.02;100.00;100784.59;4940597;28;45421;-71
2022/10/22 04:22:04;;;;;;;;;4.00;2.33;;;;;16.06;100.00;100791.19;4940583;28;45356;-72
2022/10/22 04:24:31;;;;;;;;;1.67;1.67;;;;;16.08;100.00;100796.34;4952755;28;47406;-71
2022/10/22 04:26:56;;;;;;;;;3.33;2.33;;;;;16.12;100.00;100805.59;4948133;28;48518;-72
2022/10/22 04:29:22;;;;;;;;;3.00;2.00;;;;;16.12;100.00;100794.88;4959830;28;45336;-71
2022/10/22 04:31:48;;;;;;;;;3.33;2.33;;;;;16.19;100.00;100802.94;4953123;28;45323;-71
2022/10/22 04:34:13;;;;;;;;;2.33;2.33;;;;;16.15;100.00;100787.25;4940488;28;45321;-72
2022/10/22 04:36:39;;;;;;;;;4.00;3.00;;;;;16.23;100.00;100801.47;4940183;28;45250;-72
2022/10/22 04:39:04;;;;;;;;;4.33;2.67;;;;;16.19;100.00;100790.31;4949746;28;47285;-72
2022/10/22 04:41:33;;;;;;;;;4.33;3.00;;;;;16.23;100.00;100806.81;4943367;28;45317;-72
2022/10/22 04:43:59;;;;;;;;;2.67;2.00;;;;;16.24;100.00;100808.47;4945713;28;45282;-72
2022/10/22 04:46:28;;;;;;;;;2.00;2.00;;;;;16.23;100.00;100793.41;4966454;28;47500;-72
2022/10/22 04:48:53;;;;;;;;;2.00;2.00;;;;;16.19;100.00;100795.69;4944018;28;45296;-71
2022/10/22 04:51:21;;;;;;;;;1.33;1.33;;;;;16.23;100.00;100813.03;4951979;28;45308;-71
2022/10/22 04:53:47;;;;;;;;;3.00;2.67;;;;;16.16;100.00;100798.78;4947247;28;45505;-71
2022/10/22 04:56:20;;;;;;;;;2.00;1.67;;;;;16.20;100.00;100810.75;4943577;28;45364;-72
2022/10/22 04:58:48;;;;;;;;;5.00;2.00;;;;;16.14;100.00;100795.50;4943362;28;45278;-72
2022/10/22 05:01:17;;;;;;;;;3.00;2.00;;;;;16.25;100.00;100818.97;4945526;28;45318;-71
2022/10/22 05:03:43;;;;;;;;;5.00;3.00;;;;;16.22;100.00;100808.66;4943454;28;45376;-72
2022/10/22 05:06:09;;;;;;;;;2.00;2.00;;;;;16.20;100.00;100808.06;4943116;28;45339;-71
2022/10/22 05:08:34;;;;;;;;;6.33;3.00;;;;;16.22;100.00;100821.28;4953302;28;45977;-72
2022/10/22 05:10:59;;;;;;;;;6.33;3.00;;;;;16.30;100.00;100825.56;4944306;28;45224;-72
2022/10/22 05:13:28;;;;;;;;;1.00;1.00;;;;;16.27;100.00;100819.59;4943375;28;45262;-71
2022/10/22 05:15:53;;;;;;;;;2.00;2.00;;;;;16.24;100.00;100817.34;4943251;28;45206;-71
2022/10/22 05:18:18;;;;;;;;;2.00;2.00;;;;;16.30;100.00;100817.50;4941818;28;46070;-71
2022/10/22 05:20:44;;;;;;;;;2.67;2.00;;;;;16.35;100.00;100825.78;4943477;28;45256;-71
2022/10/22 05:23:09;;;;;;;;;1.00;1.00;;;;;16.28;100.00;100818.56;4943104;28;46481;-72
2022/10/22 05:25:37;;;;;;;;;4.00;4.00;;;;;16.32;100.00;100835.06;4943330;28;45389;-72
2022/10/22 05:28:03;;;;;;;;;2.00;2.00;;;;;16.30;100.00;100833.59;4943165;28;45586;-72
2022/10/22 05:30:28;;;;;;;;;2.00;2.00;;;;;16.29;100.00;100824.75;4951791;28;45348;-71
2022/10/22 05:32:53;;;;;;;;;3.00;3.00;;;;;16.30;100.00;100831.75;4945178;28;47084;-71
2022/10/22 05:35:19;;;;;;;;;3.00;1.33;;;;;16.21;100.00;100817.75;4949323;28;46989;-72
2022/10/22 05:37:44;;;;;;;;;3.00;3.00;;;;;16.26;100.00;100825.97;4948600;28;45314;-72
2022/10/22 05:40:10;;;;;;;;;1.67;1.67;;;;;16.28;100.00;100825.78;4943113;28;45490;-71
2022/10/22 05:42:35;;;;;;;;;1.33;1.33;;;;;16.28;100.00;100837.34;4943092;28;45468;-71
2022/10/22 05:45:00;;;;;;;;;2.00;1.00;;;;;16.23;100.00;100826.44;4956254;28;46163;-71
2022/10/22 05:47:28;;;;;;;;;2.00;2.00;;;;;16.20;100.00;100844.78;4942659;28;45299;-72
2022/10/22 05:49:56;;;;;;;;;1.67;1.67;;;;;16.23;100.00;100839.84;4942950;28;45327;-72
2022/10/22 05:52:21;;;;;;;;;2.00;2.00;;;;;16.29;100.00;100843.53;4942357;28;46127;-71
2022/10/22 05:54:47;;;;;;;;;3.00;3.00;;;;;16.15;100.00;100821.28;4942620;28;46176;-72
2022/10/22 05:57:12;;;;;;;;;4.00;2.00;;;;;16.26;100.00;100843.94;4942487;28;47038;-72
2022/10/22 05:59:37;;;;;;;;;4.00;3.00;;;;;16.27;100.00;100840.22;4942663;28;45423;-72
2022/10/22 06:02:02;;;;;;;;;3.33;2.33;;;;;16.25;100.00;100836.94;4956474;28;47066;-71
2022/10/22 06:04:28;;;;;;;;;3.00;2.00;;;;;16.30;100.00;100849.69;4942440;28;51535;-72
2022/10/22 06:06:53;;;;;;;;;2.67;2.00;;;;;16.22;100.00;100838.16;4942198;28;45401;-72
2022/10/22 06:09:33;;;;;;;;;2.33;1.00;;;;;16.23;100.00;100844.38;4942449;28;45324;-72
2022/10/22 06:11:58;;;;;;;;;2.33;2.00;;;;;16.19;100.00;100843.13;4942601;28;45282;-72
2022/10/22 06:14:24;;;;;;;;;2.00;2.00;;;;;16.11;100.00;100836.97;4942248;28;45356;-72
2022/10/22 06:16:50;;;;;;;;;3.67;3.67;;;;;16.15;100.00;100854.28;4942339;28;45388;-73
2022/10/22 06:19:19;;;;;;;;;2.67;2.67;;;;;16.05;100.00;100845.00;4969562;28;45338;-72
2022/10/22 06:21:45;;;;;;;;;4.00;3.00;;;;;16.05;100.00;100853.88;4942547;28;45365;-72
2022/10/22 06:24:10;;;;;;;;;2.33;2.33;;;;;15.99;100.00;100854.72;4942031;28;46510;-72
2022/10/22 06:26:37;;;;;;;;;3.00;3.00;;;;;15.99;100.00;100866.28;4942404;28;45251;-73
2022/10/22 06:29:02;;;;;;;;;2.00;1.00;;;;;15.94;100.00;100855.28;4942572;28;45289;-72
2022/10/22 06:31:28;;;;;;;;;2.00;2.00;;;;;15.92;100.00;100859.22;4959581;28;45309;-72
2022/10/22 06:33:55;;;;;;;;;4.00;4.00;;;;;15.85;100.00;100860.03;4957731;28;47407;-72
2022/10/22 06:36:23;;;;;;;;;3.33;2.00;;;;;15.77;100.00;100858.41;4942048;28;45261;-72
2022/10/22 06:38:53;;;;;;;;;2.00;2.00;;;;;15.74;100.00;100861.47;4955684;28;45337;-72
2022/10/22 06:41:18;;;;;;;;;5.00;4.67;;;;;15.71;100.00;100869.94;4941968;28;45412;-73
2022/10/22 06:43:45;;;;;;;;;1.67;1.67;;;;;15.70;100.00;100875.50;4952988;28;47018;-73
2022/10/22 06:46:13;;;;;;;;;4.00;1.33;;;;;15.68;100.00;100875.69;4958692;28;45592;-73
2022/10/22 06:48:39;;;;;;;;;2.67;2.00;;;;;15.64;100.00;100879.81;4976257;28;45376;-73
2022/10/22 06:51:09;;;;;;;;;1.00;1.00;;;;;15.64;100.00;100883.34;4944066;28;45503;-71
2022/10/22 06:53:35;;;;;;;;;2.33;2.33;;;;;15.65;100.00;100887.66;4946532;28;46773;-71
2022/10/22 06:56:05;;;;;;;;;2.00;2.00;;;;;15.59;100.00;100880.44;4944079;28;45343;-72
2022/10/22 06:58:31;;;;;;;;;3.67;3.00;;;;;15.65;100.00;100892.19;4952474;28;45282;-72
2022/10/22 07:01:12;;;;;;;;;2.00;2.00;;;;;15.62;100.00;100888.06;4953845;28;46275;-72
2022/10/22 07:03:38;;;;;;;;;5.00;3.00;;;;;15.65;100.00;100889.50;4949120;28;46590;-73
2022/10/22 07:06:07;;;;;;;;;3.67;3.67;;;;;15.68;100.00;100891.78;4975617;28;45536;-72
2022/10/22 07:08:32;;;;;;;;;2.33;2.33;;;;;15.75;100.00;100902.50;4953566;28;45440;-72
2022/10/22 07:11:15;;;;;;;;;3.00;3.00;;;;;15.84;100.00;100912.00;4951281;28;46585;-72
2022/10/22 07:13:41;;;;;;;;;2.67;2.33;;;;;15.89;100.00;100911.34;4958782;28;45446;-72
2022/10/22 07:16:08;;;;;;;;;3.00;3.00;;;;;15.89;100.00;100912.19;4959093;28;45370;-72
2022/10/22 07:18:34;;;;;;;;;2.67;2.67;;;;;15.98;100.00;100926.25;4960732;28;45381;-74
2022/10/22 07:21:01;;;;;;;;;3.00;3.00;;;;;16.05;100.00;100925.44;4957492;28;46473;-74
2022/10/22 07:23:27;;;;;;;;;3.33;2.00;;;;;16.07;100.00;100929.53;4959672;28;46642;-74
2022/10/22 07:25:53;;;;;;;;;2.00;1.00;;;;;16.07;100.00;100926.06;4956968;28;45320;-73
2022/10/22 07:28:18;;;;;;;;;3.00;3.00;;;;;16.09;100.00;100929.34;4941694;28;45324;-74
2022/10/22 07:30:44;;;;;;;;;3.00;3.00;;;;;16.08;100.00;100931.22;4941273;28;45507;-74
2022/10/22 07:33:09;;;;;;;;;2.67;2.00;;;;;16.01;100.00;100922.31;4941189;28;46215;-74
2022/10/22 07:35:37;;;;;;;;;3.00;3.00;;;;;16.04;100.00;100929.94;4952859;28;45919;-74
2022/10/22 07:38:03;;;;;;;;;3.67;2.67;;;;;15.98;100.00;100928.94;4941364;28;45330;-74
2022/10/22 07:40:29;;;;;;;;;3.33;3.33;;;;;15.99;100.00;100940.47;4941257;28;45234;-75
2022/10/22 07:42:54;;;;;;;;;3.00;2.33;;;;;16.00;100.00;100940.28;4959848;28;45447;-73
2022/10/22 07:45:19;;;;;;;;;4.00;4.00;;;;;15.94;100.00;100934.88;4960160;28;45471;-74
2022/10/22 07:47:46;;;;;;;;;4.00;4.00;;;;;15.93;100.00;100931.38;4942007;28;45322;-74
2022/10/22 07:50:12;;;;;;;;;4.33;4.33;;;;;16.00;100.00;100945.66;4950471;28;47282;-74
2022/10/22 07:52:37;;;;;;;;;3.00;3.00;;;;;16.02;100.00;100945.44;4942301;28;48067;-74
2022/10/22 07:55:03;;;;;;;;;3.00;3.00;;;;;16.01;100.00;100949.13;4939145;28;45265;-74
2022/10/22 07:57:28;;;;;;;;;2.67;2.67;;;;;15.94;100.00;100938.38;4955586;28;45352;-74
2022/10/22 07:59:55;;;;;;;;;4.33;4.33;;;;;15.95;100.00;100933.84;4940601;28;45388;-74
2022/10/22 08:02:20;;;;;;;;;5.00;3.33;;;;;15.93;100.00;100939.44;4943839;28;45971;-74
2022/10/22 08:04:45;;;;;;;;;4.67;3.00;;;;;16.03;100.00;100952.44;4951848;28;46054;-74
2022/10/22 08:07:11;;;;;;;;;3.00;3.00;;;;;15.98;100.00;100945.00;4953887;28;46158;-74
2022/10/22 08:09:36;;;;;;;;;5.00;3.00;;;;;16.05;100.00;100952.25;4956698;28;46072;-74
2022/10/22 08:12:02;;;;;;;;;3.00;3.00;;;;;16.03;100.00;100950.59;4949434;28;46226;-75
2022/10/22 08:14:27;;;;;;;;;5.00;5.00;;;;;16.03;100.00;100947.91;4952045;28;45348;-74
2022/10/22 08:16:52;;;;;;;;;3.33;3.33;;;;;16.10;100.00;100952.47;4940367;28;45795;-75
2022/10/22 08:19:20;;;;;;;;;4.67;4.00;;;;;16.07;100.00;100947.50;4940465;28;45544;-74
2022/10/22 08:21:45;;;;;;;;;1.00;1.00;;;;;16.14;100.00;100959.84;4956459;28;48438;-74
2022/10/22 08:24:12;;;;;;;;;3.00;3.00;;;;;16.11;100.00;100954.94;4943473;28;45321;-74
2022/10/22 08:26:37;;;;;;;;;5.33;3.67;;;;;16.15;100.00;100960.69;4955523;28;45351;-74
2022/10/22 08:29:02;;;;;;;;;4.00;3.00;;;;;16.16;100.00;100951.59;4962187;28;45554;-74
2022/10/22 08:31:28;;;;;;;;;3.33;1.67;;;;;16.19;100.00;100955.75;4959282;28;45914;-74
2022/10/22 08:33:53;;;;;;;;;3.67;3.00;;;;;16.22;100.00;100964.19;4951832;28;45384;-74
2022/10/22 08:36:18;;;;;;;;;5.33;4.00;;;;;16.27;100.00;100969.78;4949230;28;45774;-75
2022/10/22 08:38:44;;;;;;;;;3.33;2.33;;;;;16.34;100.00;100975.13;4941969;28;53203;-74
2022/10/22 08:41:11;;;;;;;;;3.00;2.00;;;;;16.38;100.00;100972.88;4947631;28;46163;-73
2022/10/22 08:44:15;;;;;;;;;3.33;3.00;;;;;16.39;100.00;100969.97;4959750;28;46331;-75
2022/10/22 08:46:55;;;;;;;;;3.00;3.00;;;;;16.45;100.00;100980.88;4976334;28;45541;-75
2022/10/22 08:49:25;;;;;;;;;3.00;2.00;;;;;16.45;100.00;100970.16;4943617;28;45272;-74
2022/10/22 08:51:50;;;;;;;;;3.33;3.00;;;;;16.52;100.00;100979.84;4943049;28;47082;-73
2022/10/22 08:54:31;;;;;;;;;3.33;3.33;;;;;16.52;100.00;100979.84;4957027;28;45203;-73
2022/10/22 08:57:34;;;;;;;;;3.00;3.00;;;;;16.53;100.00;100978.81;4960695;28;45353;-73
2022/10/22 09:00:04;;;;;;;;;3.00;3.00;;;;;16.58;100.00;100985.44;4950649;28;45263;-74
2022/10/22 09:02:43;;;;;;;;;5.00;3.00;;;;;16.60;100.00;100984.19;4947341;28;48005;-73
2022/10/22 09:05:27;;;;;;;;;6.67;3.67;;;;;16.64;100.00;100989.97;4946869;28;45358;-73
2022/10/22 09:07:54;;;;;;;;;3.00;3.00;;;;;16.66;100.00;100986.03;4943340;28;45448;-73
2022/10/22 09:10:26;;;;;;;;;2.67;2.67;;;;;16.69;100.00;100990.16;4942091;28;45791;-72
2022/10/22 09:12:51;;;;;;;;;4.00;3.67;;;;;16.71;100.00;100989.94;4942564;28;46134;-72
2022/10/22 09:15:18;;;;;;;;;7.00;4.00;;;;;16.77;100.00;100992.59;4942809;28;45202;-73
2022/10/22 09:18:14;;;;;;;;;3.00;3.00;;;;;16.81;100.00;100992.19;4942970;28;45342;-72
2022/10/22 09:21:08;;;;;;;;;1.33;1.33;;;;;16.81;100.00;100987.66;4954177;28;46199;-74
2022/10/22 09:23:47;;;;;;;;;6.00;5.33;;;;;16.87;100.00;100994.88;4941959;28;46936;-72
2022/10/22 09:26:15;;;;;;;;;3.00;3.00;;;;;16.87;100.00;100994.03;4942499;28;45674;-73
2022/10/22 09:28:41;;;;;;;;;3.00;3.00;;;;;16.97;100.00;101004.34;4955833;28;45495;-73
2022/10/22 09:31:11;;;;;;;;;5.33;3.00;;;;;17.00;100.00;100994.00;4947526;28;46455;-74
2022/10/22 09:33:38;;;;;;;;;5.33;4.00;;;;;17.03;100.00;100990.91;4975420;28;47810;-75
2022/10/22 09:36:06;;;;;;;;;5.67;4.00;;;;;17.04;100.00;100989.03;4975890;28;45862;-75
2022/10/22 09:38:37;;;;;;;;;3.00;3.00;;;;;17.12;100.00;100988.84;4959126;28;45293;-76
2022/10/22 09:41:03;;;;;;;;;3.67;3.67;;;;;17.10;100.00;100980.19;4958365;28;45419;-75
2022/10/22 09:43:29;;;;;;;;;3.33;3.33;;;;;17.23;100.00;100987.34;4960429;28;45830;-75
2022/10/22 09:46:00;;;;;;;;;4.00;3.00;;;;;17.24;100.00;100997.03;4954016;28;45401;-75
2022/10/22 09:48:33;;;;;;;;;4.00;3.00;;;;;17.22;100.00;100987.56;4942088;28;45381;-75
2022/10/22 09:51:19;;;;;;;;;4.00;4.00;;;;;17.27;100.00;100991.25;4942708;28;45429;-74
2022/10/22 09:53:53;;;;;;;;;3.00;3.00;;;;;17.31;100.00;100997.03;4941700;28;46036;-74
2022/10/22 09:56:26;;;;;;;;;4.00;4.00;;;;;17.33;100.00;100996.81;4942356;28;45510;-76
2022/10/22 09:58:56;;;;;;;;;5.33;5.00;;;;;17.33;100.00;100986.88;4955245;28;45461;-75
2022/10/22 10:01:31;;;;;;;;;5.00;5.00;;;;;17.42;100.00;100996.34;4960167;28;47128;-75
2022/10/22 10:04:05;;;;;;;;;2.67;2.67;;;;;17.45;100.00;100986.22;4944541;28;45575;-75
2022/10/22 10:06:32;;;;;;;;;4.00;3.00;;;;;17.48;100.00;100986.59;4942257;28;45372;-75
2022/10/22 10:09:02;;;;;;;;;2.00;2.00;;;;;17.41;100.00;100980.44;4970603;28;45438;-75
2022/10/22 10:11:36;;;;;;;;;5.00;5.00;;;;;17.45;100.00;100988.91;4945561;28;45343;-75
2022/10/22 10:14:13;;;;;;;;;5.00;3.67;;;;;17.49;100.00;100988.28;4942307;28;45464;-75
2022/10/22 10:16:56;;;;;;;;;5.33;3.00;;;;;17.51;100.00;100994.25;4942406;28;45234;-75
2022/10/22 10:19:55;;;;;;;;;4.00;4.00;;;;;17.54;100.00;100985.75;4942296;28;45242;-75
2022/10/22 10:22:37;;;;;;;;;7.00;5.00;;;;;17.60;100.00;100994.00;4942159;28;45360;-76
2022/10/22 10:25:24;;;;;;;;;5.67;5.67;;;;;17.62;100.00;100992.75;4951463;28;46310;-74
2022/10/22 10:28:19;;;;;;;;;3.00;3.00;;;;;17.64;100.00;100996.06;4957290;28;45507;-74
2022/10/22 10:30:56;;;;;;;;;3.33;3.33;;;;;17.71;100.00;101003.22;4942195;28;45424;-75
2022/10/22 10:33:46;;;;;;;;;5.00;5.00;;;;;17.74;100.00;101000.94;4942232;28;46460;-74
2022/10/22 10:36:22;;;;;;;;;6.00;4.00;;;;;17.83;100.00;101003.38;4954206;28;47251;-75
2022/10/22 10:38:56;;;;;;;;;4.00;4.00;;;;;17.92;100.00;100988.63;4963693;28;45565;-75
2022/10/22 10:41:37;;;;;;;;;5.00;4.00;;;;;18.01;100.00;101008.84;4955861;28;45283;-75
2022/10/22 10:44:09;;;;;;;;;5.00;4.00;;;;;18.09;100.00;101010.44;4947248;28;45396;-74
2022/10/22 10:46:55;;;;;;;;;3.67;3.67;;;;;18.16;100.00;101003.19;4959067;28;47600;-74
2022/10/22 10:49:28;;;;;;;;;4.33;3.33;;;;;18.18;100.00;100994.91;4954006;28;45333;-74
2022/10/22 10:52:04;;;;;;;;;5.67;4.00;;;;;18.23;100.00;101000.41;4954727;28;45377;-73
2022/10/22 10:54:44;;;;;;;;;2.33;2.33;;;;;18.31;100.00;101006.59;4960590;28;45357;-73
2022/10/22 10:57:27;;;;;;;;;4.00;4.00;;;;;18.41;100.00;101005.03;4959343;28;46232;-75
2022/10/22 11:00:02;;;;;;;;;3.33;2.67;;;;;18.37;100.00;101001.16;4956681;28;45901;-74
2022/10/22 11:03:01;;;;;;;;;5.33;4.00;;;;;18.42;100.00;101009.41;4957426;28;45538;-74
2022/10/22 11:06:16;;;;;;;;;3.67;3.67;;;;;18.46;100.00;101004.38;4960092;28;45518;-74
2022/10/22 11:08:53;;;;;;;;;3.00;3.00;;;;;18.52;100.00;100998.13;4937972;28;45649;-74
2022/10/22 11:11:38;;;;;;;;;4.33;3.00;;;;;18.52;100.00;100991.91;4959870;28;45273;-73
2022/10/22 11:14:19;;;;;;;;;4.33;3.67;;;;;18.61;100.00;100997.81;4958898;28;45174;-73
2022/10/22 11:16:54;;;;;;;;;6.00;4.33;;;;;18.63;100.00;100993.03;4957061;28;45672;-73
2022/10/22 11:19:31;;;;;;;;;2.75;2.75;;;;;18.61;100.00;100985.19;4952365;28;45562;-73
2022/10/22 11:22:14;;;;;;;;;5.00;4.25;;;;;18.70;100.00;100990.31;4950559;28;45345;-73
2022/10/22 11:25:12;;;;;;;;;2.67;2.67;;;;;18.76;100.00;100994.78;4955991;28;45417;-74
2022/10/22 11:27:52;;;;;;;;;2.00;2.00;;;;;18.76;100.00;100987.53;4944705;28;45821;-73
2022/10/22 11:30:20;;;;;;;;;2.67;2.67;;;;;18.85;100.00;100985.38;4959964;28;45499;-73